createdAt,value
2018-12-02T00:00:08.386Z,998.57
2018-12-02T00:01:08.403Z,998.57
2018-12-02T00:02:08.444Z,998.59
2018-12-02T00:03:08.438Z,998.54
2018-12-02T00:04:08.438Z,998.52
2018-12-02T00:05:08.456Z,998.50
2018-12-02T00:06:08.480Z,998.46
2018-12-02T00:07:08.490Z,998.49
2018-12-02T00:08:08.538Z,998.45
2018-12-02T00:09:08.536Z,998.44
2018-12-02T00:10:08.532Z,998.45
2018-12-02T00:11:08.520Z,998.37
2018-12-02T00:12:08.534Z,998.45
2018-12-02T00:13:08.546Z,998.45
2018-12-02T00:14:08.563Z,998.36
2018-12-02T00:15:08.572Z,998.43
2018-12-02T00:16:08.584Z,998.40
2018-12-02T00:17:08.634Z,998.36
2018-12-02T00:18:08.614Z,998.31
2018-12-02T00:19:08.621Z,998.27
2018-12-02T00:20:08.635Z,998.34
2018-12-02T00:21:08.650Z,998.24
2018-12-02T00:22:08.660Z,998.21
2018-12-02T00:23:08.686Z,998.19
2018-12-02T00:24:08.698Z,998.24
2018-12-02T00:25:08.710Z,998.19
2018-12-02T00:26:08.733Z,998.26
2018-12-02T00:27:08.735Z,998.20
2018-12-02T00:28:08.737Z,998.25
2018-12-02T00:29:08.759Z,998.24
2018-12-02T00:30:08.755Z,998.20
2018-12-02T00:31:08.763Z,998.23
2018-12-02T00:32:08.773Z,998.23
2018-12-02T00:33:08.803Z,998.21
2018-12-02T00:34:08.801Z,998.22
2018-12-02T00:35:08.823Z,998.24
2018-12-02T00:36:08.845Z,998.20
2018-12-02T00:37:08.838Z,998.23
2018-12-02T00:38:08.851Z,998.22
2018-12-02T00:39:08.861Z,998.22
2018-12-02T00:40:08.874Z,998.27
2018-12-02T00:41:08.888Z,998.17
2018-12-02T00:42:08.899Z,998.22
2018-12-02T00:43:08.910Z,998.18
2018-12-02T00:44:08.929Z,998.17
2018-12-02T00:45:08.949Z,998.16
2018-12-02T00:46:08.948Z,998.14
2018-12-02T00:47:08.962Z,998.16
2018-12-02T00:48:08.977Z,998.12
2018-12-02T00:49:08.987Z,998.07
2018-12-02T00:50:08.999Z,998.12
2018-12-02T00:51:09.009Z,998.06
2018-12-02T00:52:09.032Z,998.06
2018-12-02T00:53:09.037Z,998.05
2018-12-02T00:54:09.050Z,998.04
2018-12-02T00:55:09.072Z,998.05
2018-12-02T00:56:09.073Z,998.07
2018-12-02T00:57:09.088Z,998.03
2018-12-02T00:58:09.104Z,997.98
2018-12-02T00:59:09.116Z,998.02
2018-12-02T01:00:09.151Z,997.97
2018-12-02T01:01:09.151Z,997.99
2018-12-02T01:02:09.149Z,997.90
2018-12-02T01:03:09.162Z,997.92
2018-12-02T01:04:09.177Z,997.93
2018-12-02T01:05:09.186Z,997.87
2018-12-02T01:06:09.198Z,997.87
2018-12-02T01:07:09.215Z,997.87
2018-12-02T01:08:09.229Z,997.86
2018-12-02T01:09:09.242Z,997.76
2018-12-02T01:10:09.249Z,997.78
2018-12-02T01:11:09.275Z,997.76
2018-12-02T01:12:09.272Z,997.80
2018-12-02T01:13:09.286Z,997.79
2018-12-02T01:14:09.298Z,997.72
2018-12-02T01:15:09.312Z,997.69
2018-12-02T01:16:09.334Z,997.68
2018-12-02T01:17:09.344Z,997.68
2018-12-02T01:18:09.360Z,997.69
2018-12-02T01:19:09.460Z,997.65
2018-12-02T01:20:09.374Z,997.67
2018-12-02T01:21:09.385Z,997.63
2018-12-02T01:22:09.399Z,997.66
2018-12-02T01:23:09.420Z,997.60
2018-12-02T01:24:09.427Z,997.58
2018-12-02T01:25:09.453Z,997.55
2018-12-02T01:26:09.448Z,997.49
2018-12-02T01:27:09.460Z,997.52
2018-12-02T01:28:09.479Z,997.50
2018-12-02T01:29:09.487Z,997.50
2018-12-02T01:30:09.506Z,997.45
2018-12-02T01:31:09.510Z,997.40
2018-12-02T01:32:09.526Z,997.47
2018-12-02T01:33:09.548Z,997.35
2018-12-02T01:34:09.549Z,997.36
2018-12-02T01:35:09.561Z,997.38
2018-12-02T01:36:09.578Z,997.34
2018-12-02T01:37:09.593Z,997.36
2018-12-02T01:38:09.598Z,997.37
2018-12-02T01:39:09.622Z,997.33
2018-12-02T01:40:09.625Z,997.33
2018-12-02T01:41:09.636Z,997.33
2018-12-02T01:42:09.651Z,997.37
2018-12-02T01:43:09.663Z,997.36
2018-12-02T01:44:09.674Z,997.31
2018-12-02T01:45:09.688Z,997.28
2018-12-02T01:46:09.702Z,997.24
2018-12-02T01:47:09.712Z,997.19
2018-12-02T01:48:09.729Z,997.18
2018-12-02T01:49:09.750Z,997.15
2018-12-02T01:50:09.750Z,997.15
2018-12-02T01:51:09.763Z,997.13
2018-12-02T01:52:09.776Z,997.10
2018-12-02T01:53:09.788Z,997.14
2018-12-02T01:54:09.807Z,997.06
2018-12-02T01:55:09.818Z,997.07
2018-12-02T01:56:09.825Z,997.07
2018-12-02T01:57:09.839Z,997.00
2018-12-02T01:58:09.851Z,997.04
2018-12-02T01:59:09.864Z,996.97
2018-12-02T02:00:09.876Z,997.00
2018-12-02T02:01:09.889Z,996.95
2018-12-02T02:02:09.906Z,996.95
2018-12-02T02:03:09.928Z,996.96
2018-12-02T02:04:09.931Z,996.94
2018-12-02T02:05:09.941Z,996.94
2018-12-02T02:06:09.952Z,996.92
2018-12-02T02:07:09.965Z,996.88
2018-12-02T02:08:09.979Z,996.84
2018-12-02T02:09:09.993Z,996.82
2018-12-02T02:10:10.008Z,996.78
2018-12-02T02:11:10.017Z,996.80
2018-12-02T02:12:10.055Z,996.76
2018-12-02T02:13:10.042Z,996.72
2018-12-02T02:14:10.054Z,996.68
2018-12-02T02:15:10.067Z,996.62
2018-12-02T02:16:10.082Z,996.69
2018-12-02T02:17:10.100Z,996.66
2018-12-02T02:18:10.105Z,996.63
2018-12-02T02:19:10.117Z,996.68
2018-12-02T02:20:10.131Z,996.57
2018-12-02T02:21:10.145Z,996.62
2018-12-02T02:22:10.158Z,996.57
2018-12-02T02:23:10.171Z,996.51
2018-12-02T02:24:10.186Z,996.48
2018-12-02T02:25:10.206Z,996.50
2018-12-02T02:26:10.219Z,996.56
2018-12-02T02:27:10.221Z,996.50
2018-12-02T02:28:10.233Z,996.44
2018-12-02T02:29:10.248Z,996.43
2018-12-02T02:30:10.264Z,996.40
2018-12-02T02:31:10.275Z,996.37
2018-12-02T02:32:10.293Z,996.39
2018-12-02T02:33:10.296Z,996.37
2018-12-02T02:34:10.310Z,996.36
2018-12-02T02:35:10.323Z,996.32
2018-12-02T02:36:10.335Z,996.29
2018-12-02T02:37:10.354Z,996.33
2018-12-02T02:38:10.383Z,996.33
2018-12-02T02:39:10.375Z,996.32
2018-12-02T02:40:10.389Z,996.27
2018-12-02T02:41:10.410Z,996.25
2018-12-02T02:42:10.413Z,996.19
2018-12-02T02:43:10.423Z,996.17
2018-12-02T02:44:10.440Z,996.13
2018-12-02T02:45:10.452Z,996.19
2018-12-02T02:46:10.468Z,996.16
2018-12-02T02:47:10.478Z,996.11
2018-12-02T02:48:10.488Z,996.01
2018-12-02T02:49:10.501Z,996.03
2018-12-02T02:50:10.515Z,996.10
2018-12-02T02:51:10.527Z,996.11
2018-12-02T02:52:10.545Z,996.09
2018-12-02T02:53:10.553Z,996.18
2018-12-02T02:54:10.564Z,996.13
2018-12-02T02:55:10.581Z,996.09
2018-12-02T02:56:10.589Z,996.13
2018-12-02T02:57:10.652Z,996.12
2018-12-02T02:58:10.615Z,996.04
2018-12-02T02:59:10.627Z,996.09
2018-12-02T03:00:10.652Z,996.02
2018-12-02T03:01:10.658Z,995.96
2018-12-02T03:02:10.685Z,995.95
2018-12-02T03:03:10.681Z,995.97
2018-12-02T03:04:10.694Z,995.99
2018-12-02T03:05:10.705Z,995.97
2018-12-02T03:06:10.721Z,995.91
2018-12-02T03:07:10.732Z,995.93
2018-12-02T03:08:10.744Z,995.89
2018-12-02T03:09:10.764Z,995.85
2018-12-02T03:10:10.772Z,995.84
2018-12-02T03:11:10.783Z,995.82
2018-12-02T03:12:10.798Z,995.81
2018-12-02T03:13:10.812Z,995.84
2018-12-02T03:14:10.819Z,995.83
2018-12-02T03:15:10.833Z,995.79
2018-12-02T03:16:10.845Z,995.78
2018-12-02T03:17:10.861Z,995.82
2018-12-02T03:18:10.885Z,995.74
2018-12-02T03:19:10.893Z,995.78
2018-12-02T03:20:10.907Z,995.79
2018-12-02T03:21:10.912Z,995.79
2018-12-02T03:22:10.923Z,995.83
2018-12-02T03:23:10.933Z,995.82
2018-12-02T03:24:10.949Z,995.84
2018-12-02T03:25:10.982Z,995.79
2018-12-02T03:26:10.999Z,995.79
2018-12-02T03:27:10.987Z,995.80
2018-12-02T03:28:11.014Z,995.77
2018-12-02T03:29:11.010Z,995.80
2018-12-02T03:30:11.028Z,995.77
2018-12-02T03:31:11.036Z,995.82
2018-12-02T03:32:11.051Z,995.78
2018-12-02T03:33:11.071Z,995.80
2018-12-02T03:34:11.078Z,995.79
2018-12-02T03:35:11.090Z,995.82
2018-12-02T03:36:11.114Z,995.76
2018-12-02T03:37:11.113Z,995.73
2018-12-02T03:38:11.126Z,995.74
2018-12-02T03:39:11.138Z,995.76
2018-12-02T03:40:11.155Z,995.71
2018-12-02T03:41:11.168Z,995.69
2018-12-02T03:42:11.181Z,995.70
2018-12-02T03:43:11.189Z,995.72
2018-12-02T03:44:11.207Z,995.70
2018-12-02T03:45:11.218Z,995.68
2018-12-02T03:46:11.228Z,995.70
2018-12-02T03:47:11.239Z,995.64
2018-12-02T03:48:11.258Z,995.68
2018-12-02T03:49:11.273Z,995.65
2018-12-02T03:50:17.175Z,995.67
2018-12-02T03:51:11.290Z,995.67
2018-12-02T03:52:11.304Z,995.72
2018-12-02T03:53:11.330Z,995.65
2018-12-02T03:54:11.331Z,995.68
2018-12-02T03:55:11.385Z,995.63
2018-12-02T03:56:11.357Z,995.65
2018-12-02T03:57:11.384Z,995.64
2018-12-02T03:58:11.380Z,995.60
2018-12-02T03:59:11.394Z,995.58
2018-12-02T04:00:11.406Z,995.56
2018-12-02T04:01:11.436Z,995.58
2018-12-02T04:02:11.432Z,995.50
2018-12-02T04:03:11.446Z,995.55
2018-12-02T04:04:11.490Z,995.52
2018-12-02T04:05:11.471Z,995.58
2018-12-02T04:06:11.486Z,995.53
2018-12-02T04:07:11.497Z,995.52
2018-12-02T04:08:11.552Z,995.45
2018-12-02T04:09:11.521Z,995.45
2018-12-02T04:10:11.534Z,995.42
2018-12-02T04:11:11.545Z,995.43
2018-12-02T04:12:11.568Z,995.35
2018-12-02T04:13:11.569Z,995.32
2018-12-02T04:14:11.588Z,995.33
2018-12-02T04:15:11.596Z,995.31
2018-12-02T04:16:11.612Z,995.27
2018-12-02T04:17:11.622Z,995.27
2018-12-02T04:18:11.644Z,995.26
2018-12-02T04:19:11.649Z,995.26
2018-12-02T04:20:11.660Z,995.23
2018-12-02T04:21:11.683Z,995.19
2018-12-02T04:22:11.686Z,995.17
2018-12-02T04:23:11.701Z,995.19
2018-12-02T04:24:11.717Z,995.16
2018-12-02T04:25:11.724Z,995.09
2018-12-02T04:26:11.738Z,995.05
2018-12-02T04:27:11.749Z,995.12
2018-12-02T04:28:11.767Z,995.09
2018-12-02T04:29:11.773Z,995.08
2018-12-02T04:30:11.790Z,995.03
2018-12-02T04:31:11.799Z,995.03
2018-12-02T04:32:11.819Z,995.01
2018-12-02T04:33:11.833Z,994.94
2018-12-02T04:34:11.840Z,994.96
2018-12-02T04:35:11.851Z,994.97
2018-12-02T04:36:11.863Z,994.94
2018-12-02T04:37:11.875Z,994.94
2018-12-02T04:38:11.888Z,994.87
2018-12-02T04:39:11.959Z,994.90
2018-12-02T04:40:11.913Z,994.94
2018-12-02T04:41:11.926Z,994.88
2018-12-02T04:42:11.938Z,994.87
2018-12-02T04:43:11.949Z,994.84
2018-12-02T04:44:11.962Z,994.89
2018-12-02T04:45:11.974Z,994.85
2018-12-02T04:46:11.999Z,994.80
2018-12-02T04:47:11.999Z,994.77
2018-12-02T04:48:12.019Z,994.72
2018-12-02T04:49:12.024Z,994.71
2018-12-02T04:50:12.038Z,994.76
2018-12-02T04:51:12.050Z,994.76
2018-12-02T04:52:12.062Z,994.76
2018-12-02T04:53:12.085Z,994.69
2018-12-02T04:54:12.086Z,994.70
2018-12-02T04:55:12.102Z,994.68
2018-12-02T04:56:12.113Z,994.67
2018-12-02T04:57:12.124Z,994.63
2018-12-02T04:58:12.138Z,994.70
2018-12-02T04:59:12.149Z,994.60
2018-12-02T05:00:12.163Z,994.66
2018-12-02T05:01:12.177Z,994.65
2018-12-02T05:02:12.189Z,994.62
2018-12-02T05:03:12.202Z,994.60
2018-12-02T05:04:12.214Z,994.60
2018-12-02T05:05:12.224Z,994.59
2018-12-02T05:06:12.243Z,994.61
2018-12-02T05:07:12.251Z,994.57
2018-12-02T05:08:12.263Z,994.53
2018-12-02T05:09:12.277Z,994.53
2018-12-02T05:10:12.293Z,994.53
2018-12-02T05:11:12.299Z,994.54
2018-12-02T05:12:12.312Z,994.50
2018-12-02T05:13:12.324Z,994.49
2018-12-02T05:14:12.341Z,994.46
2018-12-02T05:15:12.354Z,994.50
2018-12-02T05:16:12.378Z,994.46
2018-12-02T05:17:12.391Z,994.40
2018-12-02T05:18:12.391Z,994.47
2018-12-02T05:19:12.403Z,994.44
2018-12-02T05:20:12.415Z,994.43
2018-12-02T05:21:12.427Z,994.38
2018-12-02T05:22:12.441Z,994.36
2018-12-02T05:23:12.453Z,994.36
2018-12-02T05:24:12.465Z,994.36
2018-12-02T05:25:17.358Z,994.32
2018-12-02T05:26:12.495Z,994.36
2018-12-02T05:27:12.550Z,994.27
2018-12-02T05:28:12.521Z,994.34
2018-12-02T05:29:12.528Z,994.29
2018-12-02T05:30:12.541Z,994.27
2018-12-02T05:31:12.559Z,994.25
2018-12-02T05:32:12.565Z,994.24
2018-12-02T05:33:12.578Z,994.23
2018-12-02T05:34:12.591Z,994.23
2018-12-02T05:35:12.610Z,994.21
2018-12-02T05:36:12.622Z,994.19
2018-12-02T05:37:12.630Z,994.23
2018-12-02T05:38:12.653Z,994.22
2018-12-02T05:39:12.658Z,994.20
2018-12-02T05:40:12.665Z,994.19
2018-12-02T05:41:12.679Z,994.18
2018-12-02T05:42:12.692Z,994.16
2018-12-02T05:43:12.706Z,994.15
2018-12-02T05:44:12.718Z,994.12
2018-12-02T05:45:12.731Z,994.15
2018-12-02T05:46:12.743Z,994.08
2018-12-02T05:47:12.755Z,994.09
2018-12-02T05:48:12.771Z,994.11
2018-12-02T05:49:12.818Z,994.07
2018-12-02T05:50:12.803Z,994.07
2018-12-02T05:51:12.809Z,994.07
2018-12-02T05:52:12.816Z,994.06
2018-12-02T05:53:12.827Z,994.06
2018-12-02T05:54:12.841Z,993.97
2018-12-02T05:55:12.853Z,994.04
2018-12-02T05:56:12.876Z,993.99
2018-12-02T05:57:12.881Z,993.94
2018-12-02T05:58:12.892Z,993.96
2018-12-02T05:59:12.906Z,993.98
2018-12-02T06:00:12.917Z,993.97
2018-12-02T06:01:12.930Z,993.93
2018-12-02T06:02:12.942Z,993.93
2018-12-02T06:03:12.956Z,993.94
2018-12-02T06:04:13.021Z,993.94
2018-12-02T06:05:12.978Z,993.89
2018-12-02T06:06:12.990Z,993.94
2018-12-02T06:07:13.003Z,993.91
2018-12-02T06:08:13.021Z,993.86
2018-12-02T06:09:13.037Z,993.88
2018-12-02T06:10:13.047Z,993.82
2018-12-02T06:11:13.058Z,993.84
2018-12-02T06:12:13.065Z,993.89
2018-12-02T06:13:13.079Z,993.84
2018-12-02T06:14:13.090Z,993.83
2018-12-02T06:15:13.102Z,993.80
2018-12-02T06:16:13.115Z,993.77
2018-12-02T06:17:13.127Z,993.78
2018-12-02T06:18:13.140Z,993.75
2018-12-02T06:19:13.161Z,993.75
2018-12-02T06:20:13.168Z,993.70
2018-12-02T06:21:13.178Z,993.71
2018-12-02T06:22:13.195Z,993.71
2018-12-02T06:23:13.203Z,993.66
2018-12-02T06:24:13.217Z,993.62
2018-12-02T06:25:13.228Z,993.59
2018-12-02T06:26:13.244Z,993.64
2018-12-02T06:27:13.253Z,993.61
2018-12-02T06:28:13.266Z,993.59
2018-12-02T06:29:13.279Z,993.59
2018-12-02T06:30:13.291Z,993.57
2018-12-02T06:31:13.317Z,993.58
2018-12-02T06:32:13.316Z,993.56
2018-12-02T06:33:13.343Z,993.52
2018-12-02T06:34:13.344Z,993.51
2018-12-02T06:35:13.372Z,993.52
2018-12-02T06:36:13.364Z,993.48
2018-12-02T06:37:13.380Z,993.49
2018-12-02T06:38:13.394Z,993.52
2018-12-02T06:39:13.404Z,993.44
2018-12-02T06:40:13.416Z,993.43
2018-12-02T06:41:13.429Z,993.46
2018-12-02T06:42:13.442Z,993.48
2018-12-02T06:43:13.454Z,993.45
2018-12-02T06:44:13.480Z,993.43
2018-12-02T06:45:13.481Z,993.39
2018-12-02T06:46:13.491Z,993.37
2018-12-02T06:47:13.504Z,993.35
2018-12-02T06:48:13.518Z,993.39
2018-12-02T06:49:13.532Z,993.34
2018-12-02T06:50:13.544Z,993.31
2018-12-02T06:51:13.554Z,993.35
2018-12-02T06:52:13.569Z,993.34
2018-12-02T06:53:13.594Z,993.33
2018-12-02T06:54:13.598Z,993.31
2018-12-02T06:55:13.606Z,993.33
2018-12-02T06:56:13.617Z,993.35
2018-12-02T06:57:13.629Z,993.39
2018-12-02T06:58:13.642Z,993.38
2018-12-02T06:59:13.657Z,993.39
2018-12-02T07:00:13.684Z,993.37
2018-12-02T07:01:13.703Z,993.43
2018-12-02T07:02:13.696Z,993.40
2018-12-02T07:03:13.802Z,993.44
2018-12-02T07:04:13.724Z,993.46
2018-12-02T07:05:13.731Z,993.42
2018-12-02T07:06:13.746Z,993.41
2018-12-02T07:07:13.756Z,993.41
2018-12-02T07:08:13.768Z,993.36
2018-12-02T07:09:13.812Z,993.39
2018-12-02T07:10:13.797Z,993.40
2018-12-02T07:11:13.806Z,993.37
2018-12-02T07:12:13.824Z,993.39
2018-12-02T07:13:13.840Z,993.34
2018-12-02T07:14:13.854Z,993.35
2018-12-02T07:15:13.862Z,993.37
2018-12-02T07:16:13.870Z,993.38
2018-12-02T07:17:13.890Z,993.36
2018-12-02T07:18:13.895Z,993.34
2018-12-02T07:19:13.909Z,993.30
2018-12-02T07:20:13.934Z,993.26
2018-12-02T07:21:13.934Z,993.23
2018-12-02T07:22:13.946Z,993.26
2018-12-02T07:23:13.958Z,993.22
2018-12-02T07:24:13.975Z,993.15
2018-12-02T07:25:14.006Z,993.20
2018-12-02T07:26:14.006Z,993.16
2018-12-02T07:27:14.008Z,993.13
2018-12-02T07:28:14.021Z,993.17
2018-12-02T07:29:14.048Z,993.13
2018-12-02T07:30:14.048Z,993.11
2018-12-02T07:31:14.079Z,993.11
2018-12-02T07:32:14.072Z,993.13
2018-12-02T07:33:14.088Z,993.14
2018-12-02T07:34:14.099Z,993.10
2018-12-02T07:35:14.112Z,993.06
2018-12-02T07:36:14.124Z,993.13
2018-12-02T07:37:14.136Z,993.12
2018-12-02T07:38:14.148Z,993.08
2018-12-02T07:39:14.162Z,993.06
2018-12-02T07:40:14.199Z,993.08
2018-12-02T07:41:14.185Z,993.09
2018-12-02T07:42:14.250Z,993.07
2018-12-02T07:43:14.211Z,993.02
2018-12-02T07:44:14.226Z,993.04
2018-12-02T07:45:14.252Z,993.04
2018-12-02T07:46:14.268Z,993.04
2018-12-02T07:47:14.264Z,993.02
2018-12-02T07:48:14.276Z,992.97
2018-12-02T07:49:14.289Z,992.95
2018-12-02T07:50:14.348Z,993.03
2018-12-02T07:51:14.315Z,992.93
2018-12-02T07:52:14.340Z,992.94
2018-12-02T07:53:14.343Z,992.94
2018-12-02T07:54:14.354Z,992.93
2018-12-02T07:55:14.365Z,992.94
2018-12-02T07:56:14.381Z,992.93
2018-12-02T07:57:14.391Z,992.89
2018-12-02T07:58:14.404Z,992.89
2018-12-02T07:59:14.443Z,992.87
2018-12-02T08:00:14.454Z,992.87
2018-12-02T08:01:14.442Z,992.89
2018-12-02T08:02:14.458Z,992.90
2018-12-02T08:03:14.466Z,992.88
2018-12-02T08:04:14.479Z,992.82
2018-12-02T08:05:14.505Z,992.79
2018-12-02T08:06:14.508Z,992.87
2018-12-02T08:07:14.518Z,992.81
2018-12-02T08:08:14.543Z,992.82
2018-12-02T08:09:14.555Z,992.77
2018-12-02T08:10:14.559Z,992.73
2018-12-02T08:11:14.578Z,992.72
2018-12-02T08:12:14.585Z,992.73
2018-12-02T08:13:14.595Z,992.72
2018-12-02T08:14:14.608Z,992.67
2018-12-02T08:15:14.636Z,992.67
2018-12-02T08:16:14.650Z,992.68
2018-12-02T08:17:14.649Z,992.68
2018-12-02T08:18:14.679Z,992.65
2018-12-02T08:19:14.671Z,992.61
2018-12-02T08:20:14.687Z,992.63
2018-12-02T08:21:14.736Z,992.65
2018-12-02T08:22:14.717Z,992.61
2018-12-02T08:23:14.723Z,992.59
2018-12-02T08:24:14.736Z,992.65
2018-12-02T08:25:14.749Z,992.62
2018-12-02T08:26:14.761Z,992.66
2018-12-02T08:27:14.807Z,992.65
2018-12-02T08:28:14.804Z,992.65
2018-12-02T08:29:14.810Z,992.62
2018-12-02T08:30:14.809Z,992.55
2018-12-02T08:31:14.841Z,992.60
2018-12-02T08:32:14.891Z,992.58
2018-12-02T08:33:14.880Z,992.58
2018-12-02T08:34:14.867Z,992.61
2018-12-02T08:35:14.879Z,992.56
2018-12-02T08:36:14.917Z,992.53
2018-12-02T08:37:14.915Z,992.60
2018-12-02T08:38:14.913Z,992.60
2018-12-02T08:39:14.920Z,992.64
2018-12-02T08:40:14.926Z,992.62
2018-12-02T08:41:14.982Z,992.59
2018-12-02T08:42:14.965Z,992.59
2018-12-02T08:43:14.974Z,992.63
2018-12-02T08:44:14.978Z,992.62
2018-12-02T08:45:14.994Z,992.58
2018-12-02T08:46:15.015Z,992.62
2018-12-02T08:47:15.017Z,992.64
2018-12-02T08:48:15.028Z,992.62
2018-12-02T08:49:15.048Z,992.63
2018-12-02T08:50:15.068Z,992.64
2018-12-02T08:51:15.073Z,992.63
2018-12-02T08:52:15.085Z,992.68
2018-12-02T08:53:15.094Z,992.68
2018-12-02T08:54:15.112Z,992.65
2018-12-02T08:55:15.130Z,992.61
2018-12-02T08:56:15.133Z,992.61
2018-12-02T08:57:15.144Z,992.65
2018-12-02T08:58:15.161Z,992.54
2018-12-02T08:59:15.175Z,992.56
2018-12-02T09:00:15.183Z,992.54
2018-12-02T09:01:15.195Z,992.55
2018-12-02T09:02:15.210Z,992.54
2018-12-02T09:03:15.223Z,992.56
2018-12-02T09:04:15.231Z,992.55
2018-12-02T09:05:15.250Z,992.50
2018-12-02T09:06:15.261Z,992.55
2018-12-02T09:07:15.270Z,992.49
2018-12-02T09:08:15.283Z,992.46
2018-12-02T09:09:15.298Z,992.52
2018-12-02T09:10:15.310Z,992.45
2018-12-02T09:11:15.320Z,992.47
2018-12-02T09:12:15.333Z,992.52
2018-12-02T09:13:15.346Z,992.50
2018-12-02T09:14:15.364Z,992.50
2018-12-02T09:15:15.379Z,992.53
2018-12-02T09:16:15.414Z,992.51
2018-12-02T09:17:15.411Z,992.49
2018-12-02T09:18:15.417Z,992.45
2018-12-02T09:19:15.424Z,992.46
2018-12-02T09:20:15.440Z,992.44
2018-12-02T09:21:15.450Z,992.44
2018-12-02T09:22:15.463Z,992.47
2018-12-02T09:23:15.475Z,992.42
2018-12-02T09:24:15.488Z,992.42
2018-12-02T09:25:15.505Z,992.48
2018-12-02T09:26:15.552Z,992.46
2018-12-02T09:27:15.530Z,992.42
2018-12-02T09:28:15.554Z,992.43
2018-12-02T09:29:15.561Z,992.43
2018-12-02T09:30:15.567Z,992.48
2018-12-02T09:31:15.596Z,992.44
2018-12-02T09:32:15.615Z,992.43
2018-12-02T09:33:15.611Z,992.41
2018-12-02T09:34:15.619Z,992.45
2018-12-02T09:35:15.630Z,992.47
2018-12-02T09:36:15.651Z,992.48
2018-12-02T09:37:15.665Z,992.48
2018-12-02T09:38:15.669Z,992.50
2018-12-02T09:39:18.442Z,992.49
2018-12-02T09:40:15.694Z,992.47
2018-12-02T09:41:15.716Z,992.47
2018-12-02T09:42:15.722Z,992.44
2018-12-02T09:43:15.736Z,992.48
2018-12-02T09:44:15.747Z,992.39
2018-12-02T09:45:15.762Z,992.37
2018-12-02T09:46:15.778Z,992.34
2018-12-02T09:47:15.820Z,992.38
2018-12-02T09:48:15.799Z,992.32
2018-12-02T09:49:15.814Z,992.33
2018-12-02T09:50:15.838Z,992.31
2018-12-02T09:51:15.844Z,992.31
2018-12-02T09:52:15.850Z,992.30
2018-12-02T09:53:15.860Z,992.29
2018-12-02T09:54:15.880Z,992.34
2018-12-02T09:55:15.889Z,992.34
2018-12-02T09:56:15.902Z,992.40
2018-12-02T09:57:15.925Z,992.34
2018-12-02T09:58:15.935Z,992.33
2018-12-02T09:59:15.941Z,992.33
2018-12-02T10:00:15.954Z,992.35
2018-12-02T10:01:15.967Z,992.30
2018-12-02T10:02:15.978Z,992.29
2018-12-02T10:03:15.990Z,992.33
2018-12-02T10:04:16.003Z,992.31
2018-12-02T10:05:16.019Z,992.33
2018-12-02T10:06:16.031Z,992.34
2018-12-02T10:07:16.043Z,992.33
2018-12-02T10:08:16.056Z,992.35
2018-12-02T10:09:16.068Z,992.32
2018-12-02T10:10:21.947Z,992.37
2018-12-02T10:11:16.104Z,992.30
2018-12-02T10:12:16.125Z,992.34
2018-12-02T10:13:16.131Z,992.36
2018-12-02T10:14:16.138Z,992.31
2018-12-02T10:15:16.153Z,992.35
2018-12-02T10:16:17.322Z,992.31
2018-12-02T10:17:16.172Z,992.32
2018-12-02T10:18:16.196Z,992.30
2018-12-02T10:19:16.197Z,992.32
2018-12-02T10:20:16.215Z,992.23
2018-12-02T10:21:16.223Z,992.32
2018-12-02T10:22:16.241Z,992.32
2018-12-02T10:23:16.257Z,992.36
2018-12-02T10:24:16.272Z,992.29
2018-12-02T10:25:16.281Z,992.32
2018-12-02T10:26:16.291Z,992.28
2018-12-02T10:27:16.301Z,992.21
2018-12-02T10:28:16.316Z,992.27
2018-12-02T10:29:16.535Z,992.25
2018-12-02T10:30:16.355Z,992.22
2018-12-02T10:31:16.354Z,992.21
2018-12-02T10:32:16.370Z,992.19
2018-12-02T10:33:16.385Z,992.23
2018-12-02T10:34:16.393Z,992.25
2018-12-02T10:35:16.406Z,992.22
2018-12-02T10:36:16.430Z,992.23
2018-12-02T10:37:16.442Z,992.19
2018-12-02T10:38:16.445Z,992.23
2018-12-02T10:39:16.458Z,992.24
2018-12-02T10:40:16.482Z,992.20
2018-12-02T10:41:16.484Z,992.17
2018-12-02T10:42:16.506Z,992.18
2018-12-02T10:43:16.513Z,992.16
2018-12-02T10:44:16.523Z,992.14
2018-12-02T10:45:16.548Z,992.17
2018-12-02T10:46:16.550Z,992.19
2018-12-02T10:47:16.562Z,992.19
2018-12-02T10:48:16.581Z,992.12
2018-12-02T10:49:16.598Z,992.14
2018-12-02T10:50:16.649Z,992.12
2018-12-02T10:51:16.616Z,992.07
2018-12-02T10:52:16.628Z,992.13
2018-12-02T10:53:16.641Z,992.17
2018-12-02T10:54:16.656Z,992.12
2018-12-02T10:55:16.668Z,992.12
2018-12-02T10:56:16.697Z,992.12
2018-12-02T10:57:16.693Z,992.10
2018-12-02T10:58:16.711Z,992.10
2018-12-02T10:59:16.721Z,992.03
2018-12-02T11:00:16.732Z,992.13
2018-12-02T11:01:16.757Z,992.09
2018-12-02T11:02:16.763Z,992.11
2018-12-02T11:03:16.773Z,992.14
2018-12-02T11:04:16.800Z,992.10
2018-12-02T11:05:16.799Z,992.07
2018-12-02T11:06:16.814Z,992.05
2018-12-02T11:07:16.828Z,992.09
2018-12-02T11:08:16.849Z,992.12
2018-12-02T11:09:16.869Z,992.09
2018-12-02T11:10:16.868Z,992.11
2018-12-02T11:11:16.884Z,992.11
2018-12-02T11:12:16.892Z,992.09
2018-12-02T11:13:16.904Z,992.13
2018-12-02T11:14:16.937Z,992.08
2018-12-02T11:15:16.943Z,992.05
2018-12-02T11:16:16.949Z,992.05
2018-12-02T11:17:16.972Z,992.07
2018-12-02T11:18:16.982Z,992.10
2018-12-02T11:19:17.010Z,992.12
2018-12-02T11:20:17.004Z,992.07
2018-12-02T11:21:17.010Z,992.09
2018-12-02T11:22:17.025Z,992.09
2018-12-02T11:23:17.037Z,992.06
2018-12-02T11:24:17.055Z,992.06
2018-12-02T11:25:17.065Z,992.03
2018-12-02T11:26:17.081Z,992.06
2018-12-02T11:27:17.091Z,992.06
2018-12-02T11:28:17.118Z,992.04
2018-12-02T11:29:17.124Z,992.07
2018-12-02T11:30:17.137Z,992.09
2018-12-02T11:31:17.168Z,992.07
2018-12-02T11:32:17.169Z,992.05
2018-12-02T11:33:17.171Z,992.01
2018-12-02T11:34:17.224Z,992.03
2018-12-02T11:35:17.196Z,992.05
2018-12-02T11:36:17.258Z,992.03
2018-12-02T11:37:17.223Z,992.03
2018-12-02T11:38:17.241Z,991.99
2018-12-02T11:39:17.252Z,992.00
2018-12-02T11:40:17.263Z,992.03
2018-12-02T11:41:17.380Z,992.02
2018-12-02T11:42:17.289Z,992.08
2018-12-02T11:43:17.302Z,992.00
2018-12-02T11:44:17.318Z,992.04
2018-12-02T11:45:17.334Z,991.99
2018-12-02T11:46:17.350Z,991.99
2018-12-02T11:47:17.359Z,992.06
2018-12-02T11:48:17.374Z,992.03
2018-12-02T11:49:17.383Z,992.07
2018-12-02T11:50:17.397Z,992.06
2018-12-02T11:51:17.413Z,992.08
2018-12-02T11:52:17.422Z,992.08
2018-12-02T11:53:17.436Z,992.07
2018-12-02T11:55:17.476Z,992.05
2018-12-02T11:56:17.485Z,992.06
2018-12-02T11:57:17.495Z,992.05
2018-12-02T11:58:17.505Z,992.05
2018-12-02T11:59:17.586Z,992.03
2018-12-02T12:00:17.531Z,992.09
2018-12-02T12:01:17.562Z,992.09
2018-12-02T12:02:17.556Z,992.11
2018-12-02T12:03:17.571Z,992.12
2018-12-02T12:04:17.581Z,992.10
2018-12-02T12:05:17.603Z,992.09
2018-12-02T12:06:17.609Z,992.08
2018-12-02T12:07:17.622Z,992.10
2018-12-02T12:08:17.636Z,992.07
2018-12-02T12:09:17.692Z,992.08
2018-12-02T12:10:17.663Z,992.09
2018-12-02T12:11:17.685Z,992.09
2018-12-02T12:12:17.688Z,992.10
2018-12-02T12:13:17.709Z,992.10
2018-12-02T12:14:17.717Z,992.02
2018-12-02T12:15:17.734Z,992.12
2018-12-02T12:16:17.756Z,992.06
2018-12-02T12:17:17.766Z,992.07
2018-12-02T12:18:17.769Z,992.07
2018-12-02T12:19:17.799Z,992.10
2018-12-02T12:20:17.803Z,992.08
2018-12-02T12:21:17.823Z,992.05
2018-12-02T12:22:17.821Z,992.13
2018-12-02T12:23:17.839Z,992.10
2018-12-02T12:24:17.850Z,992.06
2018-12-02T12:25:17.873Z,992.08
2018-12-02T12:26:17.875Z,992.08
2018-12-02T12:27:17.888Z,992.06
2018-12-02T12:28:17.910Z,992.00
2018-12-02T12:29:17.937Z,992.01